Arboles, CO

10:54 AM MDT on August 23, 2014 (GMT -0600)
RAWS ALBINO CANYON NM US | Change Station
CLOSE
Current Station
Personal Weather Station
Location: Navajo Dam, NM
Elevation: 7172 ft
Nearby Weather Stations

Elev 7172 ft 36.98 °N, 107.63 °W | Updated 28 minutes ago

Partly Cloudy
Partly Cloudy
61 °F
Feels Like 61 °F
N
2
Wind Variable Wind from ESE
Gusts 7.0 mph

Today
High -- | Low -- °F
--% Chance of Precip.
Yesterday
High -- | Low -- °F
Precip. -- in
6:33 AM 7:51 PM
Waning Crescent, 3% visible
Pressure 30.05 in
Visibility 10.0 miles
Clouds Few 6000 ft
Dew Point 51 °F
Humidity 70%
Rainfall 0.16 in
Snow Depth Not available.
UV 5 out of 12
Pollen 8.00 out of 12
Air Quality Not available.
Flu Activity Not available.
METAR KDRO 231553Z AUTO 09005KT 10SM FEW060 15/11 A3021 RMK AO2 SLP176 T01500106

More Conditions Fewer Conditions

Pressure 30.05 in
Visibility 10.0 miles
Clouds Few 6000 ft
Dew Point 51 °F
Humidity 70%
Rainfall 0.16 in
Snow Depth Not available.
UV 5 out of 12
Pollen 8.00 out of 12
Air Quality Not available.
Flu Activity Not available.
METAR KDRO 231553Z AUTO 09005KT 10SM FEW060 15/11 A3021 RMK AO2 SLP176 T01500106

More Conditions Fewer Conditions

10-Day Weather Forecast

Almanac

Astronomy

Aug. 23, 2014 Rise Set
Actual Time 6:33 AM MDT 7:51 PM MDT
Civil Twilight 6:06 AM MDT 8:18 PM MDT
Nautical Twilight 5:33 AM MDT 8:50 PM MDT
Astronomical Twilight 5:00 AM MDT 9:24 PM MDT
Moon 4:53 AM MDT 6:37 PM MDT
Length of Visible Light 14h 11m
Length of Day
13h 17m
Tomorrow will be 2m 12s shorter.
Waning Crescent, 3% of the Moon is Illuminated
Today
Waning Crescent
Aug 25
New
Sep 2
First Quarter
Sep 8
Full
Sep 15
Last Quarter

Today's Extremes

State Highs State Lows

Community

WunderPhotos

Upload Photos

1,746,526 photos uploaded!

WunderBlogs® & News

By Dr. Jeff Masters
Director of Meteorology, Weather Underground
By Kari Strenfel
Meteorologist, Weather Underground
By Christopher C. Burt
Weather Historian, Weather Underground
August 23, 2014
August 23, 2014
August 23, 2014

Nearby

Snow Depth

Station Depth Elevation
Vallecito 1 in 10880 ft
Columbus Basin 1 in 10785 ft
Cascade 0 in 8880 ft
Sharkstooth 1 in 10720 ft
Cascade #2 1 in 8920 ft

Earthquake Activity

City Distance Mag. Time & Date
No recent earthquake activity has been reported nearby.
Minimum magnitude displayed is 2.5.

Coastal Water Temperatures

Place Temperature
No Stations Reporting

Nearby Weather Stations